sensor_id;sensor_type;location;lat;lon;timestamp;P1;durP1;ratioP1;P2;durP2;ratioP2
6358;SDS011;3212;51.460;11.868;2022-10-13T00:03:07;20.43;;;9.83;;
6358;SDS011;3212;51.460;11.868;2022-10-13T00:06:29;20.77;;;10.70;;
6358;SDS011;3212;51.460;11.868;2022-10-13T00:09:52;19.77;;;11.00;;
6358;SDS011;3212;51.460;11.868;2022-10-13T00:13:14;20.00;;;11.00;;
6358;SDS011;3212;51.460;11.868;2022-10-13T00:16:36;26.70;;;11.63;;
6358;SDS011;3212;51.460;11.868;2022-10-13T00:20:00;21.03;;;11.30;;
6358;SDS011;3212;51.460;11.868;2022-10-13T00:23:22;19.90;;;11.40;;
6358;SDS011;3212;51.460;11.868;2022-10-13T00:26:44;22.10;;;10.97;;
6358;SDS011;3212;51.460;11.868;2022-10-13T00:30:08;25.63;;;10.90;;
6358;SDS011;3212;51.460;11.868;2022-10-13T00:33:30;17.10;;;10.80;;
6358;SDS011;3212;51.460;11.868;2022-10-13T00:36:53;21.50;;;11.60;;
6358;SDS011;3212;51.460;11.868;2022-10-13T00:40:15;18.57;;;10.40;;
6358;SDS011;3212;51.460;11.868;2022-10-13T00:47:19;21.07;;;11.30;;
6358;SDS011;3212;51.460;11.868;2022-10-13T00:50:42;24.50;;;10.20;;
6358;SDS011;3212;51.460;11.868;2022-10-13T00:54:05;25.13;;;11.57;;
6358;SDS011;3212;51.460;11.868;2022-10-13T00:57:28;19.50;;;11.13;;
6358;SDS011;3212;51.460;11.868;2022-10-13T01:00:50;18.10;;;10.40;;
6358;SDS011;3212;51.460;11.868;2022-10-13T01:04:12;23.53;;;10.27;;
6358;SDS011;3212;51.460;11.868;2022-10-13T01:07:35;19.00;;;10.73;;
6358;SDS011;3212;51.460;11.868;2022-10-13T01:11:03;21.60;;;10.00;;
6358;SDS011;3212;51.460;11.868;2022-10-13T01:14:27;22.07;;;10.43;;
6358;SDS011;3212;51.460;11.868;2022-10-13T01:21:52;24.67;;;10.37;;
6358;SDS011;3212;51.460;11.868;2022-10-13T01:29:08;24.20;;;11.80;;
6358;SDS011;3212;51.460;11.868;2022-10-13T01:32:45;25.93;;;11.63;;
6358;SDS011;3212;51.460;11.868;2022-10-13T01:36:16;25.73;;;12.00;;
6358;SDS011;3212;51.460;11.868;2022-10-13T01:39:43;21.07;;;11.43;;
6358;SDS011;3212;51.460;11.868;2022-10-13T01:43:09;24.10;;;11.40;;
6358;SDS011;3212;51.460;11.868;2022-10-13T01:46:31;18.13;;;10.87;;
6358;SDS011;3212;51.460;11.868;2022-10-13T01:49:53;21.53;;;10.47;;
6358;SDS011;3212;51.460;11.868;2022-10-13T01:53:17;19.33;;;10.93;;
6358;SDS011;3212;51.460;11.868;2022-10-13T01:56:40;25.20;;;11.00;;
6358;SDS011;3212;51.460;11.868;2022-10-13T02:00:06;22.20;;;10.50;;
6358;SDS011;3212;51.460;11.868;2022-10-13T02:03:35;18.67;;;10.33;;
6358;SDS011;3212;51.460;11.868;2022-10-13T02:06:58;20.43;;;10.87;;
6358;SDS011;3212;51.460;11.868;2022-10-13T02:10:20;16.50;;;9.50;;
6358;SDS011;3212;51.460;11.868;2022-10-13T02:13:44;18.70;;;11.00;;
6358;SDS011;3212;51.460;11.868;2022-10-13T02:17:08;22.90;;;10.90;;
6358;SDS011;3212;51.460;11.868;2022-10-13T02:20:31;17.90;;;10.17;;
6358;SDS011;3212;51.460;11.868;2022-10-13T02:23:53;19.63;;;9.93;;
6358;SDS011;3212;51.460;11.868;2022-10-13T02:27:16;20.27;;;10.40;;
6358;SDS011;3212;51.460;11.868;2022-10-13T02:30:39;21.90;;;10.50;;
6358;SDS011;3212;51.460;11.868;2022-10-13T02:34:01;16.13;;;9.80;;
6358;SDS011;3212;51.460;11.868;2022-10-13T02:37:24;20.80;;;10.53;;
6358;SDS011;3212;51.460;11.868;2022-10-13T02:40:47;23.43;;;10.63;;
6358;SDS011;3212;51.460;11.868;2022-10-13T02:44:09;20.13;;;10.53;;
6358;SDS011;3212;51.460;11.868;2022-10-13T02:47:32;20.60;;;10.03;;
6358;SDS011;3212;51.460;11.868;2022-10-13T02:50:54;20.43;;;10.17;;
6358;SDS011;3212;51.460;11.868;2022-10-13T02:54:17;23.97;;;11.57;;
6358;SDS011;3212;51.460;11.868;2022-10-13T02:57:40;20.47;;;10.57;;
6358;SDS011;3212;51.460;11.868;2022-10-13T03:01:05;16.43;;;10.23;;
6358;SDS011;3212;51.460;11.868;2022-10-13T03:04:29;23.33;;;11.30;;
6358;SDS011;3212;51.460;11.868;2022-10-13T03:07:51;15.70;;;8.90;;
6358;SDS011;3212;51.460;11.868;2022-10-13T03:11:14;21.80;;;10.23;;
6358;SDS011;3212;51.460;11.868;2022-10-13T03:14:37;24.20;;;10.00;;
6358;SDS011;3212;51.460;11.868;2022-10-13T03:18:00;18.00;;;9.60;;
6358;SDS011;3212;51.460;11.868;2022-10-13T03:21:23;18.90;;;9.90;;
6358;SDS011;3212;51.460;11.868;2022-10-13T03:24:45;18.43;;;9.47;;
6358;SDS011;3212;51.460;11.868;2022-10-13T03:28:08;17.33;;;9.50;;
6358;SDS011;3212;51.460;11.868;2022-10-13T03:31:30;19.13;;;10.17;;
6358;SDS011;3212;51.460;11.868;2022-10-13T03:34:53;17.50;;;9.50;;
6358;SDS011;3212;51.460;11.868;2022-10-13T03:38:15;20.07;;;9.60;;
6358;SDS011;3212;51.460;11.868;2022-10-13T03:41:38;21.23;;;8.57;;
6358;SDS011;3212;51.460;11.868;2022-10-13T03:45:02;16.43;;;9.07;;
6358;SDS011;3212;51.460;11.868;2022-10-13T03:48:23;20.10;;;9.33;;
6358;SDS011;3212;51.460;11.868;2022-10-13T03:51:46;17.73;;;9.47;;
6358;SDS011;3212;51.460;11.868;2022-10-13T03:55:08;17.93;;;9.80;;
6358;SDS011;3212;51.460;11.868;2022-10-13T03:58:31;18.70;;;9.90;;
6358;SDS011;3212;51.460;11.868;2022-10-13T04:01:54;17.30;;;9.60;;
6358;SDS011;3212;51.460;11.868;2022-10-13T04:05:16;16.17;;;9.53;;
6358;SDS011;3212;51.460;11.868;2022-10-13T04:08:39;20.03;;;11.60;;
6358;SDS011;3212;51.460;11.868;2022-10-13T04:12:02;19.00;;;10.90;;
6358;SDS011;3212;51.460;11.868;2022-10-13T04:15:25;17.23;;;9.80;;
6358;SDS011;3212;51.460;11.868;2022-10-13T04:18:50;20.08;;;9.43;;
6358;SDS011;3212;51.460;11.868;2022-10-13T04:22:12;18.27;;;10.37;;
6358;SDS011;3212;51.460;11.868;2022-10-13T04:25:35;18.97;;;10.10;;
6358;SDS011;3212;51.460;11.868;2022-10-13T04:28:57;20.60;;;10.40;;
6358;SDS011;3212;51.460;11.868;2022-10-13T04:32:20;27.73;;;17.90;;
6358;SDS011;3212;51.460;11.868;2022-10-13T04:35:42;21.57;;;12.60;;
6358;SDS011;3212;51.460;11.868;2022-10-13T04:39:05;22.10;;;11.90;;
6358;SDS011;3212;51.460;11.868;2022-10-13T04:42:28;20.37;;;11.17;;
6358;SDS011;3212;51.460;11.868;2022-10-13T04:45:50;25.17;;;12.10;;
6358;SDS011;3212;51.460;11.868;2022-10-13T04:49:12;25.13;;;11.80;;
6358;SDS011;3212;51.460;11.868;2022-10-13T04:52:35;19.67;;;10.50;;
6358;SDS011;3212;51.460;11.868;2022-10-13T04:56:00;16.50;;;9.90;;
6358;SDS011;3212;51.460;11.868;2022-10-13T04:59:21;18.30;;;9.40;;
6358;SDS011;3212;51.460;11.868;2022-10-13T05:02:45;19.95;;;10.18;;
6358;SDS011;3212;51.460;11.868;2022-10-13T05:06:13;18.43;;;9.70;;
6358;SDS011;3212;51.460;11.868;2022-10-13T05:09:36;17.43;;;9.40;;
6358;SDS011;3212;51.460;11.868;2022-10-13T05:12:59;18.97;;;9.00;;
6358;SDS011;3212;51.460;11.868;2022-10-13T05:16:26;14.10;;;8.07;;
6358;SDS011;3212;51.460;11.868;2022-10-13T05:19:49;19.43;;;8.90;;
6358;SDS011;3212;51.460;11.868;2022-10-13T05:23:12;17.27;;;8.80;;
6358;SDS011;3212;51.460;11.868;2022-10-13T05:26:34;14.63;;;8.33;;
6358;SDS011;3212;51.460;11.868;2022-10-13T05:29:57;17.60;;;7.93;;
6358;SDS011;3212;51.460;11.868;2022-10-13T05:33:19;16.50;;;9.10;;
6358;SDS011;3212;51.460;11.868;2022-10-13T05:36:42;16.60;;;8.50;;
6358;SDS011;3212;51.460;11.868;2022-10-13T05:40:05;15.57;;;9.37;;
6358;SDS011;3212;51.460;11.868;2022-10-13T05:43:29;15.80;;;9.03;;
6358;SDS011;3212;51.460;11.868;2022-10-13T05:46:50;22.40;;;9.97;;
6358;SDS011;3212;51.460;11.868;2022-10-13T05:50:13;22.77;;;9.87;;
6358;SDS011;3212;51.460;11.868;2022-10-13T05:53:36;20.57;;;9.27;;
6358;SDS011;3212;51.460;11.868;2022-10-13T05:57:04;18.60;;;9.70;;
6358;SDS011;3212;51.460;11.868;2022-10-13T06:00:25;19.20;;;9.47;;
6358;SDS011;3212;51.460;11.868;2022-10-13T06:03:49;19.47;;;10.37;;
6358;SDS011;3212;51.460;11.868;2022-10-13T06:07:11;20.70;;;10.00;;
6358;SDS011;3212;51.460;11.868;2022-10-13T06:10:35;17.73;;;9.50;;
6358;SDS011;3212;51.460;11.868;2022-10-13T06:13:56;19.47;;;10.17;;
6358;SDS011;3212;51.460;11.868;2022-10-13T06:17:18;21.73;;;10.80;;
6358;SDS011;3212;51.460;11.868;2022-10-13T06:20:46;22.37;;;10.00;;
6358;SDS011;3212;51.460;11.868;2022-10-13T06:24:30;25.43;;;10.50;;
6358;SDS011;3212;51.460;11.868;2022-10-13T06:27:56;20.40;;;10.07;;
6358;SDS011;3212;51.460;11.868;2022-10-13T06:31:19;16.90;;;9.13;;
6358;SDS011;3212;51.460;11.868;2022-10-13T06:34:41;19.50;;;10.73;;
6358;SDS011;3212;51.460;11.868;2022-10-13T06:38:04;15.10;;;9.30;;
6358;SDS011;3212;51.460;11.868;2022-10-13T06:41:26;18.73;;;9.30;;
6358;SDS011;3212;51.460;11.868;2022-10-13T06:44:48;23.97;;;10.10;;
6358;SDS011;3212;51.460;11.868;2022-10-13T06:48:12;21.23;;;10.80;;
6358;SDS011;3212;51.460;11.868;2022-10-13T06:51:34;27.80;;;10.60;;
6358;SDS011;3212;51.460;11.868;2022-10-13T06:54:56;21.03;;;10.70;;
6358;SDS011;3212;51.460;11.868;2022-10-13T06:58:20;21.03;;;10.27;;
6358;SDS011;3212;51.460;11.868;2022-10-13T07:01:43;19.37;;;9.37;;
6358;SDS011;3212;51.460;11.868;2022-10-13T07:05:05;16.13;;;9.47;;
6358;SDS011;3212;51.460;11.868;2022-10-13T07:08:29;27.50;;;11.20;;
6358;SDS011;3212;51.460;11.868;2022-10-13T07:11:51;21.53;;;10.77;;
6358;SDS011;3212;51.460;11.868;2022-10-13T07:15:14;19.07;;;10.17;;
6358;SDS011;3212;51.460;11.868;2022-10-13T07:18:37;21.43;;;11.73;;
6358;SDS011;3212;51.460;11.868;2022-10-13T07:22:00;18.33;;;10.73;;
6358;SDS011;3212;51.460;11.868;2022-10-13T07:25:22;19.30;;;11.40;;
6358;SDS011;3212;51.460;11.868;2022-10-13T07:28:45;26.20;;;11.07;;
6358;SDS011;3212;51.460;11.868;2022-10-13T07:32:07;20.47;;;10.53;;
6358;SDS011;3212;51.460;11.868;2022-10-13T07:35:30;18.87;;;10.03;;
6358;SDS011;3212;51.460;11.868;2022-10-13T07:38:53;24.30;;;11.53;;
6358;SDS011;3212;51.460;11.868;2022-10-13T07:42:16;28.07;;;12.77;;
6358;SDS011;3212;51.460;11.868;2022-10-13T07:45:38;26.80;;;13.60;;
6358;SDS011;3212;51.460;11.868;2022-10-13T07:49:01;31.33;;;14.10;;
6358;SDS011;3212;51.460;11.868;2022-10-13T07:52:24;26.37;;;14.27;;
6358;SDS011;3212;51.460;11.868;2022-10-13T07:55:46;18.13;;;11.47;;
6358;SDS011;3212;51.460;11.868;2022-10-13T07:59:09;28.67;;;13.80;;
6358;SDS011;3212;51.460;11.868;2022-10-13T08:02:32;25.87;;;12.60;;
6358;SDS011;3212;51.460;11.868;2022-10-13T08:05:57;23.80;;;13.60;;
6358;SDS011;3212;51.460;11.868;2022-10-13T08:09:19;22.67;;;13.43;;
6358;SDS011;3212;51.460;11.868;2022-10-13T08:12:41;24.33;;;13.87;;
6358;SDS011;3212;51.460;11.868;2022-10-13T08:16:04;23.13;;;12.53;;
6358;SDS011;3212;51.460;11.868;2022-10-13T08:19:27;24.67;;;13.07;;
6358;SDS011;3212;51.460;11.868;2022-10-13T08:22:50;26.50;;;14.07;;
6358;SDS011;3212;51.460;11.868;2022-10-13T08:26:16;23.90;;;12.90;;
6358;SDS011;3212;51.460;11.868;2022-10-13T08:29:39;24.43;;;11.87;;
6358;SDS011;3212;51.460;11.868;2022-10-13T08:33:02;23.57;;;13.20;;
6358;SDS011;3212;51.460;11.868;2022-10-13T08:36:26;26.10;;;13.57;;
6358;SDS011;3212;51.460;11.868;2022-10-13T08:39:49;24.43;;;13.83;;
6358;SDS011;3212;51.460;11.868;2022-10-13T08:43:13;23.07;;;13.60;;
6358;SDS011;3212;51.460;11.868;2022-10-13T08:46:41;23.63;;;12.50;;
6358;SDS011;3212;51.460;11.868;2022-10-13T08:50:03;24.37;;;13.60;;
6358;SDS011;3212;51.460;11.868;2022-10-13T08:53:26;24.10;;;13.20;;
6358;SDS011;3212;51.460;11.868;2022-10-13T08:56:48;22.57;;;13.07;;
6358;SDS011;3212;51.460;11.868;2022-10-13T09:00:11;24.40;;;13.13;;
6358;SDS011;3212;51.460;11.868;2022-10-13T09:03:37;22.60;;;13.03;;
6358;SDS011;3212;51.460;11.868;2022-10-13T09:07:02;25.40;;;12.43;;
6358;SDS011;3212;51.460;11.868;2022-10-13T09:10:26;21.00;;;11.57;;
6358;SDS011;3212;51.460;11.868;2022-10-13T09:13:52;23.00;;;13.37;;
6358;SDS011;3212;51.460;11.868;2022-10-13T09:17:18;24.37;;;14.07;;
6358;SDS011;3212;51.460;11.868;2022-10-13T09:20:39;25.40;;;12.40;;
6358;SDS011;3212;51.460;11.868;2022-10-13T09:24:04;18.87;;;11.97;;
6358;SDS011;3212;51.460;11.868;2022-10-13T09:27:24;21.43;;;12.70;;
6358;SDS011;3212;51.460;11.868;2022-10-13T09:30:47;26.53;;;12.27;;
6358;SDS011;3212;51.460;11.868;2022-10-13T09:34:12;23.40;;;12.77;;
6358;SDS011;3212;51.460;11.868;2022-10-13T09:37:34;22.00;;;12.67;;
6358;SDS011;3212;51.460;11.868;2022-10-13T09:40:59;22.60;;;12.93;;
6358;SDS011;3212;51.460;11.868;2022-10-13T09:44:31;20.53;;;11.50;;
6358;SDS011;3212;51.460;11.868;2022-10-13T09:47:57;22.53;;;12.63;;
6358;SDS011;3212;51.460;11.868;2022-10-13T09:51:29;28.30;;;12.37;;
6358;SDS011;3212;51.460;11.868;2022-10-13T09:54:56;22.40;;;11.70;;
6358;SDS011;3212;51.460;11.868;2022-10-13T09:58:19;20.47;;;10.70;;
6358;SDS011;3212;51.460;11.868;2022-10-13T10:01:43;18.67;;;10.33;;
6358;SDS011;3212;51.460;11.868;2022-10-13T10:05:06;21.10;;;10.83;;
6358;SDS011;3212;51.460;11.868;2022-10-13T10:08:33;18.20;;;10.43;;
6358;SDS011;3212;51.460;11.868;2022-10-13T10:12:08;18.13;;;10.60;;
6358;SDS011;3212;51.460;11.868;2022-10-13T10:15:35;20.17;;;10.13;;
6358;SDS011;3212;51.460;11.868;2022-10-13T10:18:59;18.90;;;10.13;;
6358;SDS011;3212;51.460;11.868;2022-10-13T10:22:32;20.30;;;10.67;;
6358;SDS011;3212;51.460;11.868;2022-10-13T10:25:56;18.57;;;10.00;;
6358;SDS011;3212;51.460;11.868;2022-10-13T10:33:09;20.33;;;10.30;;
6358;SDS011;3212;51.460;11.868;2022-10-13T10:36:33;19.00;;;9.57;;
6358;SDS011;3212;51.460;11.868;2022-10-13T10:39:58;14.93;;;9.40;;
6358;SDS011;3212;51.460;11.868;2022-10-13T10:47:20;21.00;;;9.00;;
6358;SDS011;3212;51.460;11.868;2022-10-13T10:50:41;19.53;;;9.40;;
6358;SDS011;3212;51.460;11.868;2022-10-13T10:54:13;15.77;;;9.93;;
6358;SDS011;3212;51.460;11.868;2022-10-13T10:57:33;18.70;;;10.13;;
6358;SDS011;3212;51.460;11.868;2022-10-13T11:00:58;18.00;;;10.00;;
6358;SDS011;3212;51.460;11.868;2022-10-13T11:04:38;17.63;;;10.27;;
6358;SDS011;3212;51.460;11.868;2022-10-13T11:08:01;23.33;;;10.93;;
6358;SDS011;3212;51.460;11.868;2022-10-13T11:11:31;16.57;;;10.10;;
6358;SDS011;3212;51.460;11.868;2022-10-13T11:15:01;20.63;;;10.77;;
6358;SDS011;3212;51.460;11.868;2022-10-13T11:25:37;17.20;;;8.10;;
6358;SDS011;3212;51.460;11.868;2022-10-13T11:29:00;11.47;;;7.50;;
6358;SDS011;3212;51.460;11.868;2022-10-13T11:39:40;14.27;;;7.23;;
6358;SDS011;3212;51.460;11.868;2022-10-13T11:43:15;10.47;;;6.60;;
6358;SDS011;3212;51.460;11.868;2022-10-13T11:53:51;11.50;;;7.33;;
6358;SDS011;3212;51.460;11.868;2022-10-13T11:57:26;15.57;;;6.70;;
6358;SDS011;3212;51.460;11.868;2022-10-13T12:00:51;11.10;;;6.90;;
6358;SDS011;3212;51.460;11.868;2022-10-13T12:04:13;13.57;;;7.17;;
6358;SDS011;3212;51.460;11.868;2022-10-13T12:07:37;14.20;;;7.10;;
6358;SDS011;3212;51.460;11.868;2022-10-13T12:10:58;11.93;;;7.20;;
6358;SDS011;3212;51.460;11.868;2022-10-13T12:14:26;20.33;;;8.50;;
6358;SDS011;3212;51.460;11.868;2022-10-13T12:17:46;13.23;;;7.70;;
6358;SDS011;3212;51.460;11.868;2022-10-13T12:21:12;14.43;;;8.00;;
6358;SDS011;3212;51.460;11.868;2022-10-13T12:24:33;11.30;;;6.73;;
6358;SDS011;3212;51.460;11.868;2022-10-13T12:27:57;11.70;;;6.25;;
6358;SDS011;3212;51.460;11.868;2022-10-13T12:31:21;11.10;;;6.30;;
6358;SDS011;3212;51.460;11.868;2022-10-13T12:34:43;12.37;;;6.40;;
6358;SDS011;3212;51.460;11.868;2022-10-13T12:38:07;10.03;;;5.57;;
6358;SDS011;3212;51.460;11.868;2022-10-13T12:41:30;10.10;;;7.33;;
6358;SDS011;3212;51.460;11.868;2022-10-13T12:44:51;13.57;;;7.93;;
6358;SDS011;3212;51.460;11.868;2022-10-13T12:51:53;15.80;;;8.07;;
6358;SDS011;3212;51.460;11.868;2022-10-13T12:55:15;13.33;;;7.30;;
6358;SDS011;3212;51.460;11.868;2022-10-13T12:58:37;13.47;;;7.70;;
6358;SDS011;3212;51.460;11.868;2022-10-13T13:02:01;10.93;;;5.57;;
6358;SDS011;3212;51.460;11.868;2022-10-13T13:05:31;10.70;;;6.10;;
6358;SDS011;3212;51.460;11.868;2022-10-13T13:12:28;8.67;;;5.60;;
6358;SDS011;3212;51.460;11.868;2022-10-13T13:15:51;8.50;;;5.60;;
6358;SDS011;3212;51.460;11.868;2022-10-13T13:19:20;6.60;;;5.20;;
6358;SDS011;3212;51.460;11.868;2022-10-13T13:22:35;8.53;;;5.70;;
6358;SDS011;3212;51.460;11.868;2022-10-13T13:25:59;6.87;;;5.00;;
6358;SDS011;3212;51.460;11.868;2022-10-13T13:29:21;9.97;;;4.70;;
6358;SDS011;3212;51.460;11.868;2022-10-13T13:32:44;9.27;;;5.23;;
6358;SDS011;3212;51.460;11.868;2022-10-13T13:36:13;6.83;;;4.70;;
6358;SDS011;3212;51.460;11.868;2022-10-13T13:39:36;8.50;;;4.60;;
6358;SDS011;3212;51.460;11.868;2022-10-13T13:42:59;5.70;;;4.20;;
6358;SDS011;3212;51.460;11.868;2022-10-13T13:46:23;11.33;;;6.40;;
6358;SDS011;3212;51.460;11.868;2022-10-13T13:49:45;12.73;;;5.27;;
6358;SDS011;3212;51.460;11.868;2022-10-13T13:53:08;9.17;;;5.13;;
6358;SDS011;3212;51.460;11.868;2022-10-13T13:56:30;8.60;;;5.00;;
6358;SDS011;3212;51.460;11.868;2022-10-13T13:59:54;8.10;;;5.03;;
6358;SDS011;3212;51.460;11.868;2022-10-13T14:03:17;10.30;;;4.93;;
6358;SDS011;3212;51.460;11.868;2022-10-13T14:06:40;7.50;;;5.13;;
6358;SDS011;3212;51.460;11.868;2022-10-13T14:10:03;6.30;;;4.90;;
6358;SDS011;3212;51.460;11.868;2022-10-13T14:13:25;7.50;;;5.30;;
6358;SDS011;3212;51.460;11.868;2022-10-13T14:16:49;9.57;;;4.47;;
6358;SDS011;3212;51.460;11.868;2022-10-13T14:20:11;9.40;;;4.80;;
6358;SDS011;3212;51.460;11.868;2022-10-13T14:23:34;11.50;;;5.63;;
6358;SDS011;3212;51.460;11.868;2022-10-13T14:27:00;11.17;;;6.00;;
6358;SDS011;3212;51.460;11.868;2022-10-13T14:30:22;8.63;;;5.70;;
6358;SDS011;3212;51.460;11.868;2022-10-13T14:33:44;10.20;;;4.90;;
6358;SDS011;3212;51.460;11.868;2022-10-13T14:37:07;8.00;;;5.60;;
6358;SDS011;3212;51.460;11.868;2022-10-13T14:40:29;8.63;;;5.50;;
6358;SDS011;3212;51.460;11.868;2022-10-13T14:43:53;9.57;;;5.60;;
6358;SDS011;3212;51.460;11.868;2022-10-13T14:47:15;14.33;;;6.07;;
6358;SDS011;3212;51.460;11.868;2022-10-13T14:50:37;8.20;;;5.57;;
6358;SDS011;3212;51.460;11.868;2022-10-13T14:54:01;9.53;;;5.60;;
6358;SDS011;3212;51.460;11.868;2022-10-13T14:57:24;8.90;;;5.80;;
6358;SDS011;3212;51.460;11.868;2022-10-13T15:00:47;9.93;;;5.73;;
6358;SDS011;3212;51.460;11.868;2022-10-13T15:04:09;10.77;;;5.23;;
6358;SDS011;3212;51.460;11.868;2022-10-13T15:07:33;7.57;;;5.27;;
6358;SDS011;3212;51.460;11.868;2022-10-13T15:10:58;9.97;;;6.50;;
6358;SDS011;3212;51.460;11.868;2022-10-13T15:14:26;10.87;;;6.00;;
6358;SDS011;3212;51.460;11.868;2022-10-13T15:17:49;12.23;;;7.93;;
6358;SDS011;3212;51.460;11.868;2022-10-13T15:21:11;10.30;;;6.80;;
6358;SDS011;3212;51.460;11.868;2022-10-13T15:24:34;10.77;;;6.30;;
6358;SDS011;3212;51.460;11.868;2022-10-13T15:27:56;7.23;;;5.00;;
6358;SDS011;3212;51.460;11.868;2022-10-13T15:31:20;8.30;;;5.27;;
6358;SDS011;3212;51.460;11.868;2022-10-13T15:34:42;10.13;;;6.47;;
6358;SDS011;3212;51.460;11.868;2022-10-13T15:38:04;8.50;;;4.83;;
6358;SDS011;3212;51.460;11.868;2022-10-13T15:41:27;9.73;;;4.53;;
6358;SDS011;3212;51.460;11.868;2022-10-13T15:44:49;6.47;;;4.00;;
6358;SDS011;3212;51.460;11.868;2022-10-13T15:48:13;8.00;;;4.00;;
6358;SDS011;3212;51.460;11.868;2022-10-13T15:51:35;7.27;;;4.30;;
6358;SDS011;3212;51.460;11.868;2022-10-13T15:54:58;8.70;;;4.50;;
6358;SDS011;3212;51.460;11.868;2022-10-13T15:58:21;6.83;;;4.10;;
6358;SDS011;3212;51.460;11.868;2022-10-13T16:01:43;8.03;;;4.40;;
6358;SDS011;3212;51.460;11.868;2022-10-13T16:05:06;4.37;;;3.63;;
6358;SDS011;3212;51.460;11.868;2022-10-13T16:08:29;6.87;;;4.40;;
6358;SDS011;3212;51.460;11.868;2022-10-13T16:11:52;8.07;;;4.80;;
6358;SDS011;3212;51.460;11.868;2022-10-13T16:15:14;6.70;;;4.10;;
6358;SDS011;3212;51.460;11.868;2022-10-13T16:18:37;10.10;;;4.55;;
6358;SDS011;3212;51.460;11.868;2022-10-13T16:21:59;9.60;;;4.80;;
6358;SDS011;3212;51.460;11.868;2022-10-13T16:25:21;5.87;;;4.53;;
6358;SDS011;3212;51.460;11.868;2022-10-13T16:28:44;6.87;;;4.30;;
6358;SDS011;3212;51.460;11.868;2022-10-13T16:32:06;7.30;;;4.40;;
6358;SDS011;3212;51.460;11.868;2022-10-13T16:35:28;7.17;;;4.60;;
6358;SDS011;3212;51.460;11.868;2022-10-13T16:38:52;10.23;;;5.20;;
6358;SDS011;3212;51.460;11.868;2022-10-13T16:42:15;11.43;;;5.20;;
6358;SDS011;3212;51.460;11.868;2022-10-13T16:45:37;11.30;;;4.90;;
6358;SDS011;3212;51.460;11.868;2022-10-13T16:49:00;10.70;;;5.40;;
6358;SDS011;3212;51.460;11.868;2022-10-13T16:52:23;9.30;;;4.60;;
6358;SDS011;3212;51.460;11.868;2022-10-13T16:55:45;7.23;;;4.60;;
6358;SDS011;3212;51.460;11.868;2022-10-13T16:59:08;12.47;;;5.30;;
6358;SDS011;3212;51.460;11.868;2022-10-13T17:02:30;8.87;;;5.40;;
6358;SDS011;3212;51.460;11.868;2022-10-13T17:05:52;9.00;;;4.97;;
6358;SDS011;3212;51.460;11.868;2022-10-13T17:09:16;10.73;;;4.80;;
6358;SDS011;3212;51.460;11.868;2022-10-13T17:12:38;8.93;;;5.20;;
6358;SDS011;3212;51.460;11.868;2022-10-13T17:16:00;9.80;;;5.27;;
6358;SDS011;3212;51.460;11.868;2022-10-13T17:19:23;11.03;;;5.77;;
6358;SDS011;3212;51.460;11.868;2022-10-13T17:22:46;14.00;;;5.62;;
6358;SDS011;3212;51.460;11.868;2022-10-13T17:26:10;11.10;;;6.53;;
6358;SDS011;3212;51.460;11.868;2022-10-13T17:29:32;11.00;;;5.17;;
6358;SDS011;3212;51.460;11.868;2022-10-13T17:32:55;8.10;;;5.07;;
6358;SDS011;3212;51.460;11.868;2022-10-13T17:36:19;7.93;;;5.27;;
6358;SDS011;3212;51.460;11.868;2022-10-13T17:39:40;11.00;;;5.20;;
6358;SDS011;3212;51.460;11.868;2022-10-13T17:43:03;8.20;;;4.80;;
6358;SDS011;3212;51.460;11.868;2022-10-13T17:46:26;12.10;;;6.07;;
6358;SDS011;3212;51.460;11.868;2022-10-13T17:49:48;9.20;;;5.53;;
6358;SDS011;3212;51.460;11.868;2022-10-13T17:53:11;10.40;;;5.80;;
6358;SDS011;3212;51.460;11.868;2022-10-13T17:56:33;10.63;;;5.77;;
6358;SDS011;3212;51.460;11.868;2022-10-13T17:59:55;8.17;;;5.37;;
6358;SDS011;3212;51.460;11.868;2022-10-13T18:03:18;13.77;;;5.37;;
6358;SDS011;3212;51.460;11.868;2022-10-13T18:06:41;12.03;;;5.60;;
6358;SDS011;3212;51.460;11.868;2022-10-13T18:10:05;9.10;;;5.60;;
6358;SDS011;3212;51.460;11.868;2022-10-13T18:13:28;10.10;;;5.30;;
6358;SDS011;3212;51.460;11.868;2022-10-13T18:16:50;6.00;;;4.47;;
6358;SDS011;3212;51.460;11.868;2022-10-13T18:20:13;8.00;;;4.70;;
6358;SDS011;3212;51.460;11.868;2022-10-13T18:23:36;7.73;;;4.50;;
6358;SDS011;3212;51.460;11.868;2022-10-13T18:26:58;10.43;;;5.20;;
6358;SDS011;3212;51.460;11.868;2022-10-13T18:30:21;9.30;;;5.50;;
6358;SDS011;3212;51.460;11.868;2022-10-13T18:33:44;16.03;;;7.20;;
6358;SDS011;3212;51.460;11.868;2022-10-13T18:37:07;12.40;;;6.27;;
6358;SDS011;3212;51.460;11.868;2022-10-13T18:40:30;15.97;;;5.43;;
6358;SDS011;3212;51.460;11.868;2022-10-13T18:43:53;11.20;;;6.05;;
6358;SDS011;3212;51.460;11.868;2022-10-13T18:47:16;12.97;;;5.00;;
6358;SDS011;3212;51.460;11.868;2022-10-13T18:50:38;11.73;;;4.87;;
6358;SDS011;3212;51.460;11.868;2022-10-13T18:54:01;9.48;;;5.15;;
6358;SDS011;3212;51.460;11.868;2022-10-13T18:57:24;10.70;;;5.03;;
6358;SDS011;3212;51.460;11.868;2022-10-13T19:00:47;11.57;;;5.13;;
6358;SDS011;3212;51.460;11.868;2022-10-13T19:04:09;8.53;;;4.63;;
6358;SDS011;3212;51.460;11.868;2022-10-13T19:07:32;10.23;;;5.27;;
6358;SDS011;3212;51.460;11.868;2022-10-13T19:10:55;9.33;;;5.60;;
6358;SDS011;3212;51.460;11.868;2022-10-13T19:14:17;9.50;;;5.10;;
6358;SDS011;3212;51.460;11.868;2022-10-13T19:17:40;9.10;;;5.40;;
6358;SDS011;3212;51.460;11.868;2022-10-13T19:21:03;10.93;;;4.53;;
6358;SDS011;3212;51.460;11.868;2022-10-13T19:24:25;8.60;;;4.80;;
6358;SDS011;3212;51.460;11.868;2022-10-13T19:27:48;8.33;;;5.10;;
6358;SDS011;3212;51.460;11.868;2022-10-13T19:31:11;9.70;;;5.57;;
6358;SDS011;3212;51.460;11.868;2022-10-13T19:34:33;10.60;;;5.87;;
6358;SDS011;3212;51.460;11.868;2022-10-13T19:37:55;8.00;;;5.40;;
6358;SDS011;3212;51.460;11.868;2022-10-13T19:41:18;9.60;;;5.50;;
6358;SDS011;3212;51.460;11.868;2022-10-13T19:44:40;8.20;;;5.47;;
6358;SDS011;3212;51.460;11.868;2022-10-13T19:48:03;14.70;;;6.27;;
6358;SDS011;3212;51.460;11.868;2022-10-13T19:51:26;8.67;;;6.47;;
6358;SDS011;3212;51.460;11.868;2022-10-13T19:54:49;16.17;;;7.10;;
6358;SDS011;3212;51.460;11.868;2022-10-13T19:58:12;11.73;;;7.30;;
6358;SDS011;3212;51.460;11.868;2022-10-13T20:01:34;11.63;;;6.57;;
6358;SDS011;3212;51.460;11.868;2022-10-13T20:04:57;24.63;;;13.40;;
6358;SDS011;3212;51.460;11.868;2022-10-13T20:08:20;16.47;;;8.90;;
6358;SDS011;3212;51.460;11.868;2022-10-13T20:11:43;15.63;;;7.93;;
6358;SDS011;3212;51.460;11.868;2022-10-13T20:15:05;16.07;;;8.20;;
6358;SDS011;3212;51.460;11.868;2022-10-13T20:18:28;22.70;;;10.27;;
6358;SDS011;3212;51.460;11.868;2022-10-13T20:21:51;18.27;;;9.00;;
6358;SDS011;3212;51.460;11.868;2022-10-13T20:25:14;15.60;;;8.43;;
6358;SDS011;3212;51.460;11.868;2022-10-13T20:28:38;22.90;;;9.67;;
6358;SDS011;3212;51.460;11.868;2022-10-13T20:31:59;19.30;;;10.30;;
6358;SDS011;3212;51.460;11.868;2022-10-13T20:35:23;28.20;;;15.27;;
6358;SDS011;3212;51.460;11.868;2022-10-13T20:38:46;17.67;;;9.93;;
6358;SDS011;3212;51.460;11.868;2022-10-13T20:42:08;21.10;;;10.60;;
6358;SDS011;3212;51.460;11.868;2022-10-13T20:45:30;16.30;;;9.90;;
6358;SDS011;3212;51.460;11.868;2022-10-13T20:48:54;19.17;;;9.17;;
6358;SDS011;3212;51.460;11.868;2022-10-13T20:52:17;19.33;;;9.83;;
6358;SDS011;3212;51.460;11.868;2022-10-13T20:55:40;22.47;;;9.30;;
6358;SDS011;3212;51.460;11.868;2022-10-13T20:59:04;16.33;;;8.47;;
6358;SDS011;3212;51.460;11.868;2022-10-13T21:02:25;17.77;;;8.90;;
6358;SDS011;3212;51.460;11.868;2022-10-13T21:05:48;16.23;;;8.83;;
6358;SDS011;3212;51.460;11.868;2022-10-13T21:09:11;17.37;;;9.50;;
6358;SDS011;3212;51.460;11.868;2022-10-13T21:12:34;15.57;;;8.47;;